createdAt,value
2018-04-25T00:01:19.480Z,10.31
2018-04-25T00:03:47.063Z,10.31
2018-04-25T00:06:43.125Z,10.30
2018-04-25T00:09:10.833Z,10.29
2018-04-25T00:11:41.117Z,10.29
2018-04-25T00:14:13.182Z,10.29
2018-04-25T00:16:40.743Z,10.29
2018-04-25T00:19:10.104Z,10.30
2018-04-25T00:21:37.709Z,10.29
2018-04-25T00:29:56.884Z,10.29
2018-04-25T00:35:00.684Z,10.28
2018-04-25T00:37:28.313Z,10.27
2018-04-25T00:39:55.938Z,10.26
2018-04-25T00:50:27.546Z,10.29
2018-04-25T00:52:55.091Z,10.29
2018-04-25T00:55:23.322Z,10.30
2018-04-25T00:57:50.973Z,10.31
2018-04-25T01:09:00.420Z,10.31
2018-04-25T01:11:28.883Z,10.32
2018-04-25T01:13:56.545Z,10.32
2018-04-25T01:24:50.485Z,10.32
2018-04-25T01:27:18.056Z,10.32
2018-04-25T01:29:46.617Z,10.31
2018-04-25T01:32:14.263Z,10.29
2018-04-25T01:43:20.823Z,10.22
2018-04-25T01:49:07.503Z,10.18
2018-04-25T02:00:40.025Z,10.12
2018-04-25T02:03:07.135Z,10.09
2018-04-25T02:05:34.751Z,10.07
2018-04-25T02:08:05.123Z,10.04
2018-04-25T02:13:16.910Z,9.98
2018-04-25T02:15:48.769Z,9.95
2018-04-25T02:18:17.578Z,9.94
2018-04-25T02:20:45.183Z,9.91
2018-04-25T02:23:12.801Z,9.89
2018-04-25T02:25:44.879Z,9.88
2018-04-25T02:28:16.975Z,9.85
2018-04-25T02:30:46.136Z,9.84
2018-04-25T02:33:17.640Z,9.82
2018-04-25T02:35:45.303Z,9.79
2018-04-25T02:38:12.871Z,9.79
2018-04-25T02:40:40.423Z,9.76
2018-04-25T02:43:10.374Z,9.75
2018-04-25T02:48:17.953Z,9.72
2018-04-25T02:50:47.118Z,9.70
2018-04-25T02:53:14.658Z,9.69
2018-04-25T02:55:42.217Z,9.68
2018-04-25T02:58:09.850Z,9.67
2018-04-25T03:00:40.931Z,9.66
2018-04-25T03:03:12.730Z,9.64
2018-04-25T03:05:44.705Z,9.63
2018-04-25T03:08:14.198Z,9.63
2018-04-25T03:10:41.832Z,9.62
2018-04-25T03:13:10.347Z,9.61
2018-04-25T03:15:37.850Z,9.60
2018-04-25T03:18:06.445Z,9.60
2018-04-25T03:20:34.654Z,9.58
2018-04-25T03:23:02.316Z,9.58
2018-04-25T03:25:29.872Z,9.57
2018-04-25T03:27:57.931Z,9.56
2018-04-25T03:30:25.467Z,9.56
2018-04-25T03:32:53.035Z,9.56
2018-04-25T03:35:21.573Z,9.56
2018-04-25T03:37:57.205Z,9.56
2018-04-25T03:40:28.603Z,9.56
2018-04-25T03:42:56.211Z,9.58
2018-04-25T03:45:24.419Z,9.60
2018-04-25T03:47:52.058Z,9.62
2018-04-25T03:50:19.606Z,9.63
2018-04-25T03:52:48.953Z,9.65
2018-04-25T03:55:17.165Z,9.67
2018-04-25T03:57:49.992Z,9.68
2018-04-25T04:00:17.620Z,9.68
2018-04-25T04:02:45.140Z,9.69
2018-04-25T04:05:13.638Z,9.68
2018-04-25T04:07:41.477Z,9.66
2018-04-25T04:10:10.419Z,9.65
2018-04-25T04:12:41.824Z,9.64
2018-04-25T04:15:10.591Z,9.64
2018-04-25T04:17:38.162Z,9.66
2018-04-25T04:20:05.658Z,9.68
2018-04-25T04:22:33.207Z,9.69
2018-04-25T04:25:00.788Z,9.71
2018-04-25T04:27:30.962Z,9.72
2018-04-25T04:29:58.607Z,9.74
2018-04-25T04:32:26.594Z,9.75
2018-04-25T04:34:54.876Z,9.76
2018-04-25T04:37:23.008Z,9.78
2018-04-25T04:39:50.537Z,9.79
2018-04-25T04:42:18.067Z,9.80
2018-04-25T04:44:46.743Z,9.82
2018-04-25T04:47:15.642Z,9.81
2018-04-25T04:49:45.684Z,9.82
2018-04-25T04:52:13.203Z,9.81
2018-04-25T04:54:41.764Z,9.82
2018-04-25T04:57:09.335Z,9.83
2018-04-25T04:59:38.175Z,9.83
2018-04-25T05:02:08.984Z,9.84
2018-04-25T05:04:40.956Z,9.84
2018-04-25T05:07:13.073Z,9.83
2018-04-25T05:09:40.607Z,9.83
2018-04-25T05:12:08.132Z,9.82
2018-04-25T05:14:36.357Z,9.80
2018-04-25T05:17:03.990Z,9.79
2018-04-25T05:19:37.913Z,9.78
2018-04-25T05:24:45.175Z,9.74
2018-04-25T05:27:12.770Z,9.73
2018-04-25T05:29:40.353Z,9.72
2018-04-25T05:32:07.967Z,9.71
2018-04-25T05:34:37.950Z,9.72
2018-04-25T05:39:46.744Z,9.77
2018-04-25T05:44:52.963Z,9.81
2018-04-25T05:47:21.491Z,9.83
2018-04-25T05:49:49.059Z,9.85
2018-04-25T05:52:18.221Z,9.85
2018-04-25T05:54:46.670Z,9.86
2018-04-25T05:57:22.432Z,9.85
2018-04-25T05:59:53.840Z,9.84
2018-04-25T06:02:21.435Z,9.84
2018-04-25T06:04:48.964Z,9.82
2018-04-25T06:07:18.465Z,9.81
2018-04-25T06:09:49.376Z,9.82
2018-04-25T06:12:17.813Z,9.81
2018-04-25T06:14:54.790Z,9.80
2018-04-25T06:17:22.585Z,9.80
2018-04-25T06:19:50.216Z,9.82
2018-04-25T06:22:17.775Z,9.84
2018-04-25T06:24:45.331Z,9.86
2018-04-25T06:27:16.103Z,9.89
2018-04-25T06:29:46.635Z,9.92
2018-04-25T06:32:18.614Z,9.94
2018-04-25T06:34:46.848Z,9.97
2018-04-25T06:37:14.407Z,10.01
2018-04-25T06:39:41.961Z,10.03
2018-04-25T06:42:10.331Z,10.06
2018-04-25T06:44:41.353Z,10.08
2018-04-25T06:47:14.002Z,10.11
2018-04-25T06:49:42.515Z,10.14
2018-04-25T06:52:10.158Z,10.19
2018-04-25T06:54:37.743Z,10.21
2018-04-25T06:57:05.263Z,10.24
2018-04-25T06:59:32.807Z,10.28
2018-04-25T07:02:03.353Z,10.33
2018-04-25T07:04:33.861Z,10.40
2018-04-25T07:07:02.738Z,10.47
2018-04-25T07:09:32.851Z,10.51
2018-04-25T07:12:00.529Z,10.52
2018-04-25T07:14:28.090Z,10.53
2018-04-25T07:16:55.622Z,10.54
2018-04-25T07:19:24.840Z,10.55
2018-04-25T07:21:55.079Z,10.56
2018-04-25T07:24:29.195Z,10.57
2018-04-25T07:26:56.763Z,10.57
2018-04-25T07:29:24.357Z,10.60
2018-04-25T07:31:52.994Z,10.63
2018-04-25T07:34:20.635Z,10.68
2018-04-25T07:36:49.640Z,10.71
2018-04-25T07:44:40.896Z,10.76
2018-04-25T07:47:08.446Z,10.79
2018-04-25T07:49:36.073Z,10.81
2018-04-25T07:52:03.788Z,10.83
2018-04-25T07:54:33.903Z,10.86
2018-04-25T07:57:13.929Z,10.89
2018-04-25T08:02:45.112Z,10.95
2018-04-25T08:05:12.777Z,11.00
2018-04-25T08:07:40.420Z,11.02
2018-04-25T08:19:28.190Z,11.34
2018-04-25T08:21:55.817Z,11.41
2018-04-25T08:24:23.351Z,11.41
2018-04-25T08:26:51.088Z,11.40
2018-04-25T08:35:01.973Z,11.50
2018-04-25T08:37:29.571Z,11.50
2018-04-25T08:39:57.103Z,11.49
2018-04-25T08:42:24.696Z,11.38
2018-04-25T08:44:54.754Z,11.39
2018-04-25T08:47:25.123Z,11.44
2018-04-25T08:49:56.967Z,11.50
2018-04-25T08:52:28.826Z,11.57
2018-04-25T08:54:56.352Z,11.68
2018-04-25T08:57:23.931Z,11.76
2018-04-25T08:59:51.523Z,11.70
2018-04-25T09:02:19.116Z,11.73
2018-04-25T09:04:46.663Z,11.81
2018-04-25T09:07:17.132Z,11.89
2018-04-25T09:09:44.671Z,11.99
2018-04-25T09:12:12.187Z,12.08
2018-04-25T09:14:39.742Z,12.17
2018-04-25T09:17:07.305Z,12.27
2018-04-25T09:19:37.093Z,12.39
2018-04-25T09:22:07.497Z,12.49
2018-04-25T09:24:37.885Z,12.60
2018-04-25T09:27:05.512Z,12.70
2018-04-25T09:29:33.110Z,12.69
2018-04-25T09:32:00.649Z,12.68
2018-04-25T09:34:28.302Z,12.52
2018-04-25T09:36:56.473Z,12.38
2018-04-25T09:39:25.670Z,12.03
2018-04-25T09:41:57.060Z,11.53
2018-04-25T09:44:24.679Z,11.22
2018-04-25T09:46:52.223Z,11.00
2018-04-25T09:49:19.739Z,10.76
2018-04-25T09:51:47.344Z,10.52
2018-04-25T09:54:14.915Z,10.27
2018-04-25T09:56:42.536Z,10.15
2018-04-25T09:59:10.906Z,10.10
2018-04-25T10:04:11.951Z,10.16
2018-04-25T10:06:39.472Z,10.22
2018-04-25T10:09:07.038Z,10.27
2018-04-25T10:19:48.167Z,10.87
2018-04-25T10:22:15.784Z,11.04
2018-04-25T10:24:43.383Z,11.24
2018-04-25T10:27:10.969Z,11.53
2018-04-25T10:29:38.555Z,11.78
2018-04-25T10:32:17.292Z,11.85
2018-04-25T10:37:20.685Z,11.98
2018-04-25T10:39:48.316Z,11.98
2018-04-25T10:42:15.885Z,11.86
2018-04-25T10:44:45.142Z,11.73
2018-04-25T10:47:17.119Z,11.71
2018-04-25T10:49:48.928Z,11.84
2018-04-25T10:52:22.168Z,12.02
2018-04-25T10:54:49.789Z,12.12
2018-04-25T10:57:17.415Z,12.19
2018-04-25T10:59:45.082Z,12.25
2018-04-25T11:05:02.665Z,12.26
2018-04-25T11:07:35.069Z,12.31
2018-04-25T11:10:09.011Z,12.26
2018-04-25T11:12:36.710Z,12.22
2018-04-25T11:15:04.251Z,12.22
2018-04-25T11:17:32.198Z,12.17
2018-04-25T11:28:39.563Z,12.43
2018-04-25T11:31:07.131Z,12.51
2018-04-25T11:33:34.920Z,12.56
2018-04-25T11:45:11.118Z,12.69
2018-04-25T11:47:38.732Z,12.78
2018-04-25T11:50:06.327Z,12.82
2018-04-25T11:52:34.010Z,12.86
2018-04-25T11:55:05.210Z,12.85
2018-04-25T11:57:38.226Z,12.81
2018-04-25T12:00:06.523Z,12.87
2018-04-25T12:02:34.255Z,12.93
2018-04-25T12:05:01.901Z,13.00
2018-04-25T12:07:29.350Z,13.06
2018-04-25T12:09:56.985Z,13.09
2018-04-25T12:12:26.964Z,13.17
2018-04-25T12:19:58.227Z,13.45
2018-04-25T12:22:25.768Z,13.55
2018-04-25T12:24:53.418Z,13.55
2018-04-25T12:27:21.131Z,13.63
2018-04-25T12:29:53.051Z,13.66
2018-04-25T12:32:23.199Z,13.68
2018-04-25T12:34:56.554Z,13.63
2018-04-25T12:37:25.079Z,13.60
2018-04-25T12:39:52.583Z,13.67
2018-04-25T12:42:21.852Z,13.59
2018-04-25T12:47:27.056Z,13.40
2018-04-25T12:49:59.456Z,13.31
2018-04-25T12:52:29.805Z,13.33
2018-04-25T12:54:57.359Z,13.48
2018-04-25T12:57:24.993Z,13.58
2018-04-25T12:59:52.674Z,13.68
2018-04-25T13:02:21.274Z,13.77
2018-04-25T13:04:50.771Z,13.76
2018-04-25T13:07:21.306Z,13.78
2018-04-25T13:09:50.286Z,13.81
2018-04-25T13:12:17.928Z,13.82
2018-04-25T13:14:45.484Z,13.83
2018-04-25T13:17:13.061Z,13.79
2018-04-25T13:22:30.856Z,13.83
2018-04-25T13:27:36.708Z,13.91
2018-04-25T13:30:04.267Z,13.86
2018-04-25T13:32:31.927Z,13.66
2018-04-25T13:34:59.565Z,13.70
2018-04-25T13:46:08.283Z,14.17
2018-04-25T13:48:35.880Z,14.24
2018-04-25T13:51:03.414Z,14.34
2018-04-25T14:03:06.799Z,14.49
2018-04-25T14:05:34.343Z,14.46
2018-04-25T14:08:02.005Z,14.46
2018-04-25T14:10:30.877Z,14.41
2018-04-25T14:21:36.945Z,14.46
2018-04-25T14:24:04.514Z,14.52
2018-04-25T14:26:32.115Z,14.50
2018-04-25T14:32:11.065Z,14.73
2018-04-25T14:34:39.926Z,14.82
2018-04-25T14:37:08.137Z,14.72
2018-04-25T14:39:35.850Z,14.81
2018-04-25T14:42:03.442Z,14.67
2018-04-25T14:44:31.075Z,14.34
2018-04-25T14:47:01.165Z,14.12
2018-04-25T14:49:31.211Z,14.23
2018-04-25T14:51:59.298Z,14.49
2018-04-25T14:54:28.046Z,14.62
2018-04-25T14:56:55.583Z,14.50
2018-04-25T14:59:23.143Z,14.36
2018-04-25T15:01:51.879Z,14.36
2018-04-25T15:04:22.682Z,14.52
2018-04-25T15:06:53.876Z,14.62
2018-04-25T15:12:24.319Z,14.79
2018-04-25T15:14:51.985Z,14.83
2018-04-25T15:17:19.541Z,14.79
2018-04-25T15:28:04.345Z,14.62
2018-04-25T15:30:31.918Z,14.63
2018-04-25T15:32:59.482Z,14.72
2018-04-25T15:35:27.224Z,14.77
2018-04-25T16:04:16.788Z,14.80
2018-04-25T16:06:44.613Z,15.06
2018-04-25T16:09:12.236Z,15.27
2018-04-25T16:17:53.954Z,15.67
2018-04-25T16:20:21.551Z,15.82
2018-04-25T16:22:49.189Z,15.98
2018-04-25T16:25:16.696Z,15.57
2018-04-25T16:33:18.150Z,14.97
2018-04-25T16:35:46.776Z,15.15
2018-04-25T16:38:14.352Z,15.06
2018-04-25T16:40:41.901Z,14.82
2018-04-25T16:43:09.497Z,14.82
2018-04-25T16:45:38.919Z,14.77
2018-04-25T16:48:07.460Z,15.08
2018-04-25T16:50:38.152Z,15.36
2018-04-25T16:53:06.882Z,15.25
2018-04-25T16:55:34.426Z,15.25
2018-04-25T16:58:01.974Z,15.04
2018-04-25T17:00:29.612Z,14.87
2018-04-25T17:03:02.204Z,14.54
2018-04-25T17:05:30.963Z,14.38
2018-04-25T17:07:59.365Z,14.30
2018-04-25T17:10:31.037Z,14.09
2018-04-25T17:12:58.560Z,13.88
2018-04-25T17:15:26.131Z,13.69
2018-04-25T17:17:53.695Z,13.61
2018-04-25T17:20:26.131Z,13.46
2018-04-25T17:22:57.392Z,13.37
2018-04-25T17:25:26.449Z,13.39
2018-04-25T17:27:55.205Z,13.31
2018-04-25T17:30:22.858Z,13.34
2018-04-25T17:32:50.399Z,13.33
2018-04-25T17:35:18.075Z,13.40
2018-04-25T17:37:49.423Z,13.76
2018-04-25T17:40:19.175Z,13.93
2018-04-25T17:42:47.231Z,14.14
2018-04-25T17:45:14.904Z,14.20
2018-04-25T17:47:42.422Z,14.18
2018-04-25T17:50:09.997Z,14.21
2018-04-25T17:52:37.543Z,14.31
2018-04-25T17:55:07.195Z,14.50
2018-04-25T17:57:37.880Z,14.54
2018-04-25T18:00:06.506Z,14.61
2018-04-25T18:05:12.019Z,14.80
2018-04-25T18:07:39.590Z,14.85
2018-04-25T18:10:07.175Z,14.73
2018-04-25T18:12:39.248Z,14.73
2018-04-25T18:15:06.939Z,14.68
2018-04-25T18:17:39.294Z,14.59
2018-04-25T18:20:07.057Z,14.50
2018-04-25T18:22:34.563Z,14.33
2018-04-25T18:25:02.166Z,14.10
2018-04-25T18:27:29.719Z,13.96
2018-04-25T18:29:58.202Z,13.73
2018-04-25T18:32:26.691Z,13.59
2018-04-25T18:34:58.075Z,13.34
2018-04-25T18:37:25.745Z,13.20
2018-04-25T18:39:53.262Z,13.09
2018-04-25T18:42:20.783Z,12.94
2018-04-25T18:44:48.342Z,12.80
2018-04-25T18:47:16.726Z,12.62
2018-04-25T18:49:45.041Z,12.51
2018-04-25T18:52:15.199Z,12.37
2018-04-25T18:54:43.904Z,12.29
2018-04-25T18:57:31.219Z,12.26
2018-04-25T18:59:58.778Z,12.06
2018-04-25T19:02:26.331Z,12.05
2018-04-25T19:04:57.884Z,12.00
2018-04-25T19:07:26.417Z,11.85
2018-04-25T19:09:55.380Z,11.76
2018-04-25T19:12:22.977Z,11.71
2018-04-25T19:14:50.551Z,11.60
2018-04-25T19:17:18.088Z,11.50
2018-04-25T19:19:45.647Z,11.44
2018-04-25T19:22:15.293Z,11.41
2018-04-25T19:24:42.913Z,11.30
2018-04-25T19:27:15.033Z,11.26
2018-04-25T19:29:43.539Z,11.24
2018-04-25T19:32:11.088Z,11.22
2018-04-25T19:34:38.652Z,11.15
2018-04-25T19:37:06.151Z,11.10
2018-04-25T19:39:34.614Z,11.04
2018-04-25T19:42:02.922Z,10.99
2018-04-25T19:44:31.380Z,10.99
2018-04-25T19:46:58.918Z,10.94
2018-04-25T19:49:26.504Z,10.91
2018-04-25T19:51:54.015Z,10.88
2018-04-25T19:54:22.196Z,10.85
2018-04-25T19:56:50.534Z,10.81
2018-04-25T19:59:19.015Z,10.79
2018-04-25T20:01:49.112Z,10.78
2018-04-25T20:04:16.675Z,10.76
2018-04-25T20:06:44.227Z,10.73
2018-04-25T20:09:11.791Z,10.71
2018-04-25T20:11:39.334Z,10.68
2018-04-25T20:14:06.906Z,10.68
2018-04-25T20:16:35.479Z,10.64
2018-04-25T20:19:03.172Z,10.64
2018-04-25T20:21:30.688Z,10.59
2018-04-25T20:23:58.222Z,10.59
2018-04-25T20:26:25.839Z,10.59
2018-04-25T20:28:53.364Z,10.58
2018-04-25T20:31:24.441Z,10.59
2018-04-25T20:33:53.456Z,10.58
2018-04-25T20:36:22.017Z,10.59
2018-04-25T20:38:49.468Z,10.58
2018-04-25T20:41:17.023Z,10.61
2018-04-25T20:43:44.799Z,10.63
2018-04-25T20:46:12.322Z,10.69
2018-04-25T20:48:42.484Z,10.70
2018-04-25T20:51:10.871Z,10.68
2018-04-25T20:53:39.147Z,10.67
2018-04-25T20:56:06.683Z,10.71
2018-04-25T20:58:34.268Z,10.69
2018-04-25T21:01:01.727Z,10.67
2018-04-25T21:03:29.288Z,10.71
2018-04-25T21:05:59.396Z,10.71
2018-04-25T21:08:26.964Z,10.72
2018-04-25T21:10:57.475Z,10.74
2018-04-25T21:13:25.028Z,10.72
2018-04-25T21:15:52.527Z,10.72
2018-04-25T21:18:20.060Z,10.72
2018-04-25T21:20:47.613Z,10.73
2018-04-25T21:23:15.221Z,10.67
2018-04-25T21:25:43.709Z,10.68
2018-04-25T21:28:16.132Z,10.66
2018-04-25T21:30:44.346Z,10.67
2018-04-25T21:33:11.902Z,10.66
2018-04-25T21:35:39.430Z,10.64
2018-04-25T21:38:06.987Z,10.60
2018-04-25T21:40:37.150Z,10.57
2018-04-25T21:43:07.240Z,10.55
2018-04-25T21:45:34.879Z,10.51
2018-04-25T21:48:04.827Z,10.49
2018-04-25T21:50:32.327Z,10.45
2018-04-25T21:52:59.850Z,10.43
2018-04-25T21:55:27.465Z,10.39
2018-04-25T21:57:55.084Z,10.38
2018-04-25T22:00:23.476Z,10.36
2018-04-25T22:02:51.067Z,10.35
2018-04-25T22:05:18.943Z,10.35
2018-04-25T22:07:46.511Z,10.37
2018-04-25T22:10:14.040Z,10.37
2018-04-25T22:12:41.558Z,10.38
2018-04-25T22:15:10.079Z,10.36
2018-04-25T22:17:38.778Z,10.36
2018-04-25T22:20:07.043Z,10.37
2018-04-25T22:22:34.598Z,10.38
2018-04-25T22:25:02.124Z,10.35
2018-04-25T22:27:29.651Z,10.35
2018-04-25T22:29:57.223Z,10.33
2018-04-25T22:32:25.900Z,10.32
2018-04-25T22:34:58.355Z,10.29
2018-04-25T22:37:27.247Z,10.27
2018-04-25T22:39:54.821Z,10.26
2018-04-25T22:42:22.363Z,10.22
2018-04-25T22:44:49.867Z,10.23
2018-04-25T22:47:18.507Z,10.22
2018-04-25T22:49:47.056Z,10.20
2018-04-25T22:52:17.399Z,10.16
2018-04-25T22:54:47.445Z,10.15
2018-04-25T22:57:15.010Z,10.15
2018-04-25T22:59:42.571Z,10.14
2018-04-25T23:02:10.115Z,10.11
2018-04-25T23:04:37.636Z,10.09
2018-04-25T23:07:11.911Z,10.10
2018-04-25T23:09:42.216Z,10.08
2018-04-25T23:12:10.825Z,10.04
2018-04-25T23:14:38.315Z,10.03
2018-04-25T23:17:11.324Z,10.04
2018-04-25T23:19:38.822Z,10.04
2018-04-25T23:22:06.369Z,10.01
2018-04-25T23:24:35.044Z,10.00
2018-04-25T23:27:05.338Z,9.98
2018-04-25T23:29:34.158Z,9.96
2018-04-25T23:32:01.763Z,9.97
2018-04-25T23:34:29.274Z,9.98
2018-04-25T23:36:56.839Z,9.97
2018-04-25T23:39:24.363Z,9.96
2018-04-25T23:41:53.607Z,9.96
2018-04-25T23:44:22.088Z,9.94
2018-04-25T23:46:50.504Z,9.93
2018-04-25T23:49:18.080Z,9.92
2018-04-25T23:51:45.683Z,9.91
2018-04-25T23:54:13.191Z,9.89
2018-04-25T23:56:40.755Z,9.88
2018-04-25T23:59:09.043Z,9.86
